Georgia  Logo

Conyers, GA Single Family Real Estate Listings

572 Total Real Estate Listings * Click on table heading to sort
Date Posted Property Type Style Address Price Living Area Lot Size Price/Sq Ft.
2017-04-24 Single Family Ranch 2630 Honey Creek Rd Conyers, GA 30094 $340,000 2,032 sq. ft. 280,962 sq. ft. $167
2017-04-24 Single Family Traditional 4951 Hull Road Conyers, GA 30094 $97,900
2017-04-24 Single Family Ranch 1198 Robin Rd. Ne Conyers, GA 30012 $110,000 1,564 sq. ft. 14,810 sq. ft. $70
2017-04-24 Single Family Traditional 1615 Cherry Hill Ct Sw Conyers, GA 30094 $90,000 1,347 sq. ft. 10,454 sq. ft. $67
2017-04-24 Single Family Traditional 2812 Clearwater Conyers, GA 30013 $300,000
2017-04-23 Single Family Traditional 1133 St Remy Way Conyers, GA 30013 $359,900 6,175 sq. ft. 20,038 sq. ft. $58
2017-04-23 Single Family Traditional 2488 Harvest Dr Conyers, GA 30013 $275,000 3,446 sq. ft. 44,867 sq. ft. $80
2017-04-22 Single Family Traditional 1686 Salem Mill Ct Conyers, GA 30013 $102,500 1,362 sq. ft. $75
2017-04-22 Single Family Traditional 1236 Maggie Ln Conyers, GA 30013 $120,000 1,424 sq. ft. 27,443 sq. ft. $84
2017-04-22 Single Family Country/Rustic; Ranch 1838 Brandy Woods Conyers, GA 30013 $96,900 1,650 sq. ft. 23,958 sq. ft. $59
2017-04-22 Single Family Ranch; Traditional 4721 Raleigh Ct Conyers, GA 30094 $114,900 1,156 sq. ft. 20,909 sq. ft. $99
2017-04-21 Single Family Ranch 2752 North Hightower Trl Conyers, GA 30012 $249,000 2,155 sq. ft. 146,797 sq. ft. $116
2017-04-21 Single Family Contemporary 2945 Bonds Lake Rd Conyers, GA 30012 $685,000 7,579 sq. ft. 47,916 sq. ft. $90
2017-04-21 Single Family A-Frame 1494 Reagan Cir Conyers, GA 30012 $389,000 5,470 sq. ft. 37,026 sq. ft. $71
2017-04-21 Single Family Ranch 2301 Briarwood Cir Conyers, GA 30094 $98,900 1,327 sq. ft. 21,344 sq. ft. $75
2017-04-21 Single Family 958 Sundew Dr Conyers, GA 30013 $475,000 4,244 sq. ft. $112
2017-04-21 Single Family Traditional 3287 Old Salem Rd Conyers, GA 30013 $110,000 2,000 sq. ft. 20,473 sq. ft. $55
2017-04-20 Single Family Traditional 2233 Wilson Rd Conyers, GA 30012 $80,000 1,134 sq. ft. 27,443 sq. ft. $71
2017-04-20 Single Family Ranch 2859 Cinnamon Ct Conyers, GA 30094 $90,000 1,240 sq. ft. $73
2017-04-20 Single Family Traditional 3031 Stone Bridge Tr Conyers, GA 30094 $180,900
2017-04-19 Single Family Ranch 3130 Brians Creek Dr Conyers, GA 30013 $299,000 2,429 sq. ft. 41,382 sq. ft. $123
2017-04-19 Single Family Ranch 2540 Old Salem Cir Conyers, GA 30013 $359,900 34,848 sq. ft.
2017-04-19 Single Family 2155 Rockbridge Rd Conyers, GA 30012 $210,000 1,930 sq. ft. 289,238 sq. ft. $109
2017-04-19 Single Family Ranch; Traditional 833 Carlton Dr Conyers, GA 30094 $102,500
2017-04-19 Single Family Traditional 4063 Clay Ct Conyers, GA 30013 $175,900
2017-04-19 Single Family Traditional 3062 Avondale Blvd Conyers, GA 30013 $176,900
2017-04-19 Single Family Traditional 4100 Dale Dr Conyers, GA 30013 $177,900
2017-04-19 Single Family Traditional 3064 Avondale Blvd Conyers, GA 30013 $178,900
2017-04-19 Single Family Traditional 2704 Bailey Pl Conyers, GA 30013 $329,900 3,468 sq. ft. 27,443 sq. ft. $95
2017-04-18 Single Family Ranch; Traditional 2856 Country Club Conyers, GA 30013 $165,000 22,216 sq. ft.
2017-04-18 Single Family Contemporary 2801 Wellington Way Conyers, GA 30013 $303,000 2,729 sq. ft. 38,768 sq. ft. $111
2017-04-18 Single Family Traditional 1240 Vineyard Dr Conyers, GA 30013 $299,900 4,384 sq. ft. 38,333 sq. ft. $68
2017-04-18 Single Family Ranch 285 Glenn Rd Conyers, GA 30013 $220,000 673,002 sq. ft.
2017-04-18 Single Family Ranch 1754 Stag Dr Conyers, GA 30012 $119,900 20,038 sq. ft.
2017-04-18 Single Family Ranch 3040 Horseshoe Springs Dr Conyers, GA 30013 $285,000 3,050 sq. ft. 72,745 sq. ft. $93
2017-04-18 Single Family Ranch 2772 Southpark Blvd Conyers, GA 30094 $186,900 1,914 sq. ft. 20,038 sq. ft. $98
2017-04-18 Single Family Other (See Remarks); Traditional 3150 Hammock Creek Conyers, GA 30012 $134,900 2,800 sq. ft. 82,764 sq. ft. $48
2017-04-18 Single Family Traditional 1368 Fall River Dr Conyers, GA 30013 $224,900 2,954 sq. ft. 16,553 sq. ft. $76
2017-04-17 Single Family Traditional 1624 Brentwood Xing Conyers, GA 30013 $196,500 2,594 sq. ft. $76
2017-04-17 Single Family Cape Cod; Traditional 2610 King George Ct Conyers, GA 30012 $149,900 1,732 sq. ft. 38,768 sq. ft. $87
2017-04-17 Single Family Traditional 1137 Carillon Dr Conyers, GA 30013 $265,000 21,780 sq. ft.
2017-04-17 Single Family Traditional 2318 Red Maple Ct Conyers, GA 30013 $150,000 3,288 sq. ft. 16,988 sq. ft. $46
2017-04-17 Single Family Ranch 4802 Hemlock Conyers, GA 30094 $89,900 20,909 sq. ft.
2017-04-17 Single Family Traditional 1768 Hunting Creek Ln Conyers, GA 30013 $39,900 12,632 sq. ft.
2017-04-15 Single Family 4561 Woodlake Ln Conyers, GA 30013 $145,000 1,956 sq. ft. 14,375 sq. ft. $74
2017-04-15 Single Family Ranch 1051 Duke Dr Conyers, GA 30013 $135,000 2,643 sq. ft. $51
2017-04-14 Single Family Ranch 1877 Brandy Ln Conyers, GA 30013 $119,900 1,655 sq. ft. 23,522 sq. ft. $72
2017-04-14 Single Family Traditional 3700 Honeycomb Dr Conyers, GA 30094 $210,000 2,841 sq. ft. 20,909 sq. ft. $74
2017-04-14 Single Family Ranch 1093 Fox Conyers, GA 30013 $149,900
2017-04-14 Single Family Traditional 3971 Woodland Cir Conyers, GA 30013 $36,900 11,761 sq. ft.
2017-04-14 Single Family Ranch; Traditional 1363 Northside Dr Conyers, GA 30012 $274,500 2,409 sq. ft. 43,996 sq. ft. $114
2017-04-14 Single Family Colonial; Traditional 2317 Deerfield Chase Conyers, GA 30013 $225,000 3,326 sq. ft. 14,810 sq. ft. $68
2017-04-14 Single Family Ranch 3763 Ebenezer Conyers, GA 30094 $114,900 1,429 sq. ft. 26,136 sq. ft. $80
2017-04-14 Single Family Traditional 1030 Kingston Rd Conyers, GA 30012 $129,900 1,637 sq. ft. $79
2017-04-14 Single Family Traditional 1580 Sugarmaple Conyers, GA 30094 $95,000 1,360 sq. ft. 11,761 sq. ft. $70
2017-04-13 Single Family Traditional 3244 Lucky Pl Conyers, GA 30013 $293,477 4,108 sq. ft. $71
2017-04-13 Single Family Traditional 789 Sage Ln Conyers, GA 30012 $97,500 1,496 sq. ft. 20,909 sq. ft. $65
2017-04-13 Single Family Traditional 1115 Mccords Corner Conyers, GA 30012 $42,000
2017-04-13 Single Family Ranch 2202 Chase Way Conyers, GA 30013 $179,900 1,792 sq. ft. 5,750 sq. ft. $100
2017-04-13 Single Family Ranch 378 Morris Dr Conyers, GA 30094 $94,900 1,390 sq. ft. 13,068 sq. ft. $68
2017-04-13 Single Family Traditional 4897 Hull Rd Conyers, GA 30094 $88,500 1,802 sq. ft. 20,038 sq. ft. $49
2017-04-13 Single Family Traditional 2856 Havenwood Dr Conyers, GA 30094 $359,900
2017-04-12 Single Family Contemporary 2801 Chimney View Dr Conyers, GA 30094 $250,000
2017-04-12 Single Family Ranch 1132 St Remy Way Conyers, GA 30013 $269,900 3,310 sq. ft. 36,590 sq. ft. $82
2017-04-12 Single Family Ranch 1739 Hi Roc Rd Conyers, GA 30012 $160,000 1,056 sq. ft. 65,340 sq. ft. $152
2017-04-12 Single Family Cape Cod 3464 Monica Ln Conyers, GA 30094 $324,900 5,255 sq. ft. 114,127 sq. ft. $62
2017-04-12 Single Family Traditional 2928 Ash Grove Dr Conyers, GA 30094 $335,900 18,731 sq. ft.
2017-04-12 Single Family Traditional 4109 Dale Dr Conyers, GA 30013 $175,900
2017-04-12 Single Family Traditional 4110 Dale Dr Conyers, GA 30013 $176,900
2017-04-12 Single Family Traditional 4076 Clay Ct Conyers, GA 30013 $184,900
2017-04-12 Single Family Ranch 1099 Park Cir Conyers, GA 30012 $114,900 897 sq. ft. 21,780 sq. ft. $128
2017-04-11 Single Family Ranch 1779 Highway 212 Conyers, GA 30094 $99,000 1,327 sq. ft. 23,522 sq. ft. $75
2017-04-11 Single Family Traditional 1384 Travers Creek Conyers, GA 30012 $149,800
2017-04-11 Single Family Traditional 3017 Stonecrest Ct Conyers, GA 30094 $165,000 23,522 sq. ft.
2017-04-11 Single Family Craftsman; Traditional 1528 Kathryns Glen Dr Conyers, GA 30013 $266,795
2017-04-11 Single Family Traditional 4209 Haralson Mill Rd Conyers, GA 30012 $269,900
2017-04-11 Single Family Ranch 635 Lakeridge Cir Conyers, GA 30094 $89,000 1,348 sq. ft. $66
2017-04-11 Single Family Contemporary 705 Mcdaniel Mill Rd Conyers, GA 30094 $99,900 1,466 sq. ft. $68
2017-04-11 Single Family Ranch 1523 Mountain View Cir Conyers, GA 30012 $83,900 1,352 sq. ft. 18,731 sq. ft. $62
2017-04-10 Single Family Ranch 3845 Pointers Way Conyers, GA 30094 $150,000 1,832 sq. ft. 24,394 sq. ft. $82
2017-04-10 Single Family Ranch 4781 Northbrook Ct Conyers, GA 30094 $175,000 2,006 sq. ft. $87
2017-04-09 Single Family Traditional 1438 Gardner Rd Conyers, GA 30012 $139,000 1,471 sq. ft. 20,038 sq. ft. $94
2017-04-09 Single Family Ranch 5360 Tanager Ter Conyers, GA 30094 $196,000 2,018 sq. ft. 30,056 sq. ft. $97
2017-04-09 Single Family Traditional 2871 Terrace Ridge Rd Conyers, GA 30012 $249,999 72,745 sq. ft.
2017-04-08 Single Family Other (See Remarks); Traditional 641 Bell Conyers, GA 30094 $218,900 2,037 sq. ft. 72,745 sq. ft. $107
2017-04-08 Single Family Ranch; Traditional 3358 Berkshire Bend Conyers, GA 30013 $125,000 1,751 sq. ft. 15,682 sq. ft. $71
2017-04-07 Single Family Contemporary; Traditional 2565 Old Covington Rd Conyers, GA 30013 $279,900
2017-04-07 Single Family Traditional 3219 Hildas Corner Conyers, GA 30013 $190,000 2,024 sq. ft. 16,988 sq. ft. $94
2017-04-07 Single Family Traditional 1820 Lancaster Dr Conyers, GA 30013 $279,900 3,811 sq. ft. $73
2017-04-07 Single Family Ranch 1305 Mountain Conyers, GA 30013 $107,000 13,504 sq. ft.
2017-04-07 Single Family Ranch; Traditional 2008 Millstone Conyers, GA 30094 $275,000 25,700 sq. ft.
2017-04-07 Single Family Contemporary 1112 Carillon Conyers, GA 30013 $320,999 4,231 sq. ft. $76
2017-04-07 Single Family Traditional 1709 Carolina Pl Conyers, GA 30013 $268,342
2017-04-07 Single Family Craftsman; Traditional 1536 Kathryns Glen Dr Conyers, GA 30013 $281,270
2017-04-07 Single Family Traditional 2002 Evergreen Dr Conyers, GA 30013 $219,900 2,814 sq. ft. 19,994 sq. ft. $78
2017-04-06 Single Family Traditional 1904 Cornerstone Pass Conyers, GA 30012 $200,000 3,259 sq. ft. 8,625 sq. ft. $61
2017-04-06 Single Family Ranch 1180 Christian Cir Conyers, GA 30013 $219,900 2,560 sq. ft. 242,629 sq. ft. $86
2017-04-06 Single Family Ranch 2507 Hi Roc Cir Conyers, GA 30012 $139,900 1,716 sq. ft. 28,750 sq. ft. $82
2017-04-05 Single Family Traditional 3321 Bartlett Ave Conyers, GA 30013 $332,900
2017-04-05 Single Family Ranch; Traditional 2521 Chimney Ridge Dr Conyers, GA 30094 $235,000 67,518 sq. ft.
2017-04-05 Single Family Traditional 3323 Bartlett Ave Conyers, GA 30013 $341,950
2017-04-05 Single Family Contemporary 1222 Cedar Creek Ct Conyers, GA 30012 $49,500 828 sq. ft.
2017-04-05 Single Family Traditional 530 Trotters Ln Conyers, GA 30094 $224,900 2,766 sq. ft. 20,038 sq. ft. $81
2017-04-05 Single Family Ranch 660 Ralph Conyers, GA 30094 $67,000 1,107 sq. ft. 10,019 sq. ft. $61
2017-04-05 Single Family Craftsman 2000 Evergreen Dr Conyers, GA 30013 $225,000 2,773 sq. ft. 29,185 sq. ft. $81
2017-04-04 Single Family Ranch 582 Ribbon Ln Conyers, GA 30094 $250,000 21,344 sq. ft.
2017-04-04 Single Family Ranch 3165 Ebenezer Conyers, GA 30094 $159,900 2,146 sq. ft. 63,162 sq. ft. $75
2017-04-04 Single Family Craftsman 2600 Brynlyn Ct Conyers, GA 30013 $292,000 2,977 sq. ft. 26,136 sq. ft. $98
2017-04-04 Single Family Country/Rustic 2500 Tucker Mill Rd Conyers, GA 30094 $197,000 2,372 sq. ft. 213,444 sq. ft. $83
2017-04-03 Single Family Traditional 2526 Plymouth Way Conyers, GA 30013 $138,000 2,051 sq. ft. 10,454 sq. ft. $67
2017-04-03 Single Family Ranch 4716 Highway 20 Conyers, GA 30013 $150,000 43,560 sq. ft.
2017-04-03 Single Family Traditional 2546 Plymouth Way Conyers, GA 30013 $153,900
2017-04-03 Single Family Ranch; Traditional 1907 Courtney Lake Dr Conyers, GA 30094 $159,900 1,863 sq. ft. 23,522 sq. ft. $86
2017-04-03 Single Family European; Ranch 2716 Rainwater Trl Conyers, GA 30094 $409,000 3,400 sq. ft. 35,284 sq. ft. $120
2017-04-03 Single Family Traditional 325 Morris Ct Conyers, GA 30094 $74,900 1,296 sq. ft. 5,227 sq. ft. $58
2017-04-03 Single Family Traditional 1558 Montauk Point Conyers, GA 30013 $239,900 3,172 sq. ft. 18,295 sq. ft. $76
2017-04-02 Single Family Craftsman; Traditional 4007 Rosebay Way Conyers, GA 30094 $299,990
2017-04-02 Single Family European 1529 Bordeaux Ln Conyers, GA 30094 $414,900 27,443 sq. ft.
2017-04-01 Single Family Traditional 20 Serenity Way Conyers, GA 30013 $324,900 3,464 sq. ft. 29,185 sq. ft. $94
2017-04-01 Single Family Ranch 1702 Little Brook Dr Conyers, GA 30094 $128,000 1,952 sq. ft. 27,878 sq. ft. $66
2017-04-01 Single Family Traditional 4205 Lindsey Way Conyers, GA 30013 $229,900 2,344 sq. ft. 25,700 sq. ft. $98
2017-04-01 Single Family Traditional 4217 Lindsey Way Conyers, GA 30013 $234,900 2,356 sq. ft. 33,323 sq. ft. $100
2017-04-01 Single Family Ranch 680 2nd Conyers, GA 30012 $79,000 11,761 sq. ft.
2017-03-31 Single Family Traditional 3310 Justin Way Conyers, GA 30013 $209,000 3,683 sq. ft. 19,166 sq. ft. $57
2017-03-31 Single Family Traditional 1667 Winchester Way Conyers, GA 30013 $59,900 1,080 sq. ft. $55
2017-03-31 Single Family Traditional 1515 Shoal Creek Dr Conyers, GA 30094 $149,000 24,829 sq. ft.
2017-03-31 Single Family Ranch 1799 Green St Conyers, GA 30012 $75,000 1,647 sq. ft. 17,424 sq. ft. $46
2017-03-30 Single Family Ranch; Traditional 2123 Teri Ln Conyers, GA 30013 $89,900
2017-03-30 Single Family Traditional 1915 Flat Shoals Rd Conyers, GA 30013 $220,000 1,844 sq. ft. 213,444 sq. ft. $119
2017-03-30 Single Family Ranch 2000 Mcdaniel Mill Rd Conyers, GA 30094 $239,900 2,464 sq. ft. 145,055 sq. ft. $97
2017-03-30 Single Family Ranch 1782 Little Fawn Trl Conyers, GA 30012 $124,900 1,170 sq. ft. 27,007 sq. ft. $107
2017-03-30 Single Family Ranch 911 Pleasant Hill Rd Conyers, GA 30012 $79,900 1,768 sq. ft. 100,188 sq. ft. $45
2017-03-30 Single Family Traditional 611 Sugar Hill Ct Conyers, GA 30094 $225,000 2,721 sq. ft. 21,344 sq. ft. $83
2017-03-29 Single Family Traditional 1260 Christian Cir Conyers, GA 30013 $139,900 1,538 sq. ft. 152,460 sq. ft. $91
2017-03-29 Single Family A-Frame; Ranch 5194 Parkside Dr Conyers, GA 30094 $160,000 1,856 sq. ft. 22,651 sq. ft. $86
2017-03-29 Single Family Traditional 899 Ray Dr Conyers, GA 30012 $94,900 1,251 sq. ft. 29,185 sq. ft. $76
2017-03-29 Single Family Traditional 1206 Castle Point Ct Conyers, GA 30094 $280,000 3,756 sq. ft. 47,480 sq. ft. $75
2017-03-29 Single Family Ranch 540 Bell Rd Conyers, GA 30094 $79,900 1,097 sq. ft. 43,560 sq. ft. $73
2017-03-29 Single Family Traditional 1452 Oak Forest Way Conyers, GA 30013 $93,500 2,120 sq. ft. 14,810 sq. ft. $44
2017-03-29 Single Family Ranch 1510 Hillside Conyers, GA 30094 $130,000 20,038 sq. ft.
2017-03-28 Single Family Contemporary 1230 Oxford Dr Conyers, GA 30013 $319,900 3,054 sq. ft. 27,007 sq. ft. $105
2017-03-28 Single Family Traditional 1320 Wild Rose Dr Conyers, GA 30013 $310,325 3,166 sq. ft. 14,375 sq. ft. $98
2017-03-28 Single Family Traditional 4091 Clay Ct Conyers, GA 30013 $184,900
2017-03-28 Single Family Ranch 3227 Salem Cove Way Conyers, GA 30013 $119,900
2017-03-28 Single Family Traditional 1417 Oak Knoll Dr Conyers, GA 30012 $78,540 1,511 sq. ft. 8,712 sq. ft. $52
2017-03-28 Single Family Ranch 1479 Steam Engine Way Conyers, GA 30013 $96,950 9,583 sq. ft.
2017-03-27 Single Family Traditional 948 Sundew Dr Conyers, GA 30013 $270,000 2,581 sq. ft. $105
2017-03-27 Single Family Traditional 5871 Ambrose Dr Conyers, GA 30094 $190,900 2,461 sq. ft. $78
2017-03-27 Single Family Traditional 2927 Chesterfield Way Conyers, GA 30013 $269,900 2,880 sq. ft. $94
2017-03-27 Single Family Traditional 5275 Annie Mitchell Conyers, GA 30094 $199,900 2,743 sq. ft. 65,340 sq. ft. $73
2017-03-27 Single Family Craftsman 4121 Haralson Mill Rd Conyers, GA 30012 $549,900 4,284 sq. ft. 262,231 sq. ft. $128
2017-03-27 Single Family Ranch; Traditional 530 Bell Rd Conyers, GA 30094 $80,000 1,556 sq. ft. 20,473 sq. ft. $51
2017-03-27 Single Family Ranch 1510 Rena Ct Conyers, GA 30012 $78,500 1,338 sq. ft. 33,106 sq. ft. $59
2017-03-27 Single Family Traditional 1969 Surrey Trl Conyers, GA 30013 $162,500 2,203 sq. ft. 26,136 sq. ft. $74
2017-03-27 Single Family Traditional 300 Windsor Walk Conyers, GA 30094 $89,900 1,342 sq. ft. 14,375 sq. ft. $67
2017-03-27 Single Family Craftsman; Traditional 2931 David Ln Conyers, GA 30012 $107,500 1,214 sq. ft. 21,780 sq. ft. $89
2017-03-26 Single Family Ranch; Traditional 1024 Mccalla St Conyers, GA 30012 $80,000 1,452 sq. ft. $55
2017-03-25 Single Family Traditional 815 Reagan Dr Conyers, GA 30012 $309,900 4,485 sq. ft. 35,284 sq. ft. $69
2017-03-25 Single Family Ranch 4624 Lynnwood Ct Conyers, GA 30094 $130,000 1,938 sq. ft. 20,038 sq. ft. $67
2017-03-25 Single Family Ranch 1396 Green St Conyers, GA 30012 $69,900 1,527 sq. ft. 17,860 sq. ft. $46
2017-03-24 Single Family Ranch; Traditional 826 Cochise Trl Conyers, GA 30094 $120,000 1,504 sq. ft. 19,602 sq. ft. $80
2017-03-24 Single Family Traditional 1621 Smyrna Rd Sw Conyers, GA 30094 $250,000 6,757 sq. ft. 104,108 sq. ft. $37
2017-03-24 Single Family Ranch 3601 Shale Ln Conyers, GA 30013 $190,000 2,225 sq. ft. $85
2017-03-24 Single Family Contemporary 2320 Fairview Rd Conyers, GA 30013 $113,900 1,380 sq. ft. 23,087 sq. ft. $83
2017-03-24 Single Family Ranch 4770 Cedar Brook Dr Conyers, GA 30094 $115,000 1,508 sq. ft. 24,394 sq. ft. $76
2017-03-24 Single Family Traditional 1607 Manchester Dr Conyers, GA 30094 $165,000 2,462 sq. ft. 9,148 sq. ft. $67
2017-03-23 Single Family Ranch; Traditional 1875 Flat Shoals Rd Conyers, GA 30013 $299,000 230,868 sq. ft.
2017-03-23 Single Family Traditional 4200 Dave Cv Conyers, GA 30013 $174,900
2017-03-23 Single Family Traditional 4079 Clay Ct Conyers, GA 30013 $185,900
2017-03-23 Single Family Traditional 4097 Clay Ct Conyers, GA 30013 $187,900
2017-03-23 Single Family Ranch 802 Navajo Conyers, GA 30094 $99,000 1,351 sq. ft. 19,602 sq. ft. $73
2017-03-23 Single Family Country/Rustic 5191 Brentwood Ln Conyers, GA 30094 $169,500 2,245 sq. ft. 20,038 sq. ft. $76
2017-03-23 Single Family Traditional 1402 Fall River Dr Conyers, GA 30013 $170,000
2017-03-23 Single Family Ranch 5223 Kurt Ln Conyers, GA 30094 $154,900 1,815 sq. ft. 44,867 sq. ft. $85
2017-03-23 Single Family Contemporary 422 Shadow Oak Dr Conyers, GA 30094 $169,000 26,136 sq. ft.
2017-03-22 Single Family Ranch 2980 Camary Place Dr Conyers, GA 30094 $159,900 2,205 sq. ft. 19,602 sq. ft. $73
2017-03-22 Single Family Ranch 2789 Southpark Blvd Conyers, GA 30094 $189,900 35,284 sq. ft.
2017-03-22 Single Family Traditional; Victorian 5029 West Shore Dr Conyers, GA 30094 $265,000 2,992 sq. ft. 239,580 sq. ft. $89
2017-03-22 Single Family Traditional 305 Windsor Walk Conyers, GA 30094 $111,500 1,456 sq. ft. 10,019 sq. ft. $77
2017-03-22 Single Family Modular Home 2807 Tucker Mill Ct Conyers, GA 30094 $109,900 1,378 sq. ft. 65,340 sq. ft. $80
2017-03-22 Single Family Traditional 2008 Briar Creek Ct Conyers, GA 30012 $108,000
2017-03-21 Single Family Traditional 4750 Meadowlark Dr Conyers, GA 30094 $184,300 2,738 sq. ft. 24,394 sq. ft. $67
2017-03-21 Single Family Traditional 4212 Dale Cv Conyers, GA 30013 $184,900
2017-03-21 Single Family Traditional 4105 Dale Dr Conyers, GA 30013 $184,900
2017-03-21 Single Family Traditional 4108 Dale Dr Conyers, GA 30013 $187,900
2017-03-21 Single Family Craftsman; Traditional 2430 Planters Mill Way Conyers, GA 30012 $254,140 3,233 sq. ft. 8,843 sq. ft. $79
2017-03-20 Single Family Traditional 1024 Alexandria Ln Conyers, GA 30094 $219,900 2,382 sq. ft. 36,590 sq. ft. $92
2017-03-20 Single Family Ranch; Traditional 794 Brook Hollow Cir Conyers, GA 30094 $119,900 1,472 sq. ft. 26,136 sq. ft. $81
2017-03-20 Single Family Contemporary 1504 Chelsea Downs Dr Conyers, GA 30013 $108,900 1,250 sq. ft. 13,939 sq. ft. $87
2017-03-19 Single Family Traditional 1456 Reagan Cir Conyers, GA 30012 $309,000
2017-03-18 Single Family Country/Rustic 2236 Tucker Mill Rd Conyers, GA 30094 $249,900 1,828 sq. ft. $137
2017-03-18 Single Family Traditional 301 Landon Dr Conyers, GA 30094 $144,900 1,740 sq. ft. 2,178 sq. ft. $83
2017-03-17 Single Family Traditional 1270 Oxford Dr Conyers, GA 30013 $369,900 6,520 sq. ft. 46,609 sq. ft. $57
2017-03-17 Single Family European 1240 Azalea Cir Conyers, GA 30013 $499,500 5,800 sq. ft. 72,745 sq. ft. $86
2017-03-17 Single Family Traditional 2106 Jessica Way Conyers, GA 30012 $219,900 2,888 sq. ft. 14,810 sq. ft. $76
2017-03-17 Single Family European; Traditional 3422 Lanier Ln Conyers, GA 30013 $400,000 4,976 sq. ft. $80
2017-03-17 Single Family Traditional 616 Sugar Creek Trl Conyers, GA 30094 $190,000 2,592 sq. ft. 18,731 sq. ft. $73
2017-03-17 Single Family Ranch 871 Jefferson Dr Conyers, GA 30094 $105,000 1,721 sq. ft. 23,522 sq. ft. $61
2017-03-17 Single Family Ranch 3941 Woodland Conyers, GA 30013 $73,900 1,310 sq. ft. 20,038 sq. ft. $56
2017-03-16 Single Family Ranch; Traditional 3320 Lismore Conyers, GA 30012 $525,000 7,186 sq. ft. 182,081 sq. ft. $73
2017-03-16 Single Family Country/Rustic 1727 Hunting Creek Ln Conyers, GA 30013 $75,000 1,002 sq. ft. 13,504 sq. ft. $75
2017-03-16 Single Family Traditional 1034 Vine Ct Conyers, GA 30013 $299,900 2,518 sq. ft. 91,476 sq. ft. $119
2017-03-16 Single Family Traditional 4064 Dale Dr Conyers, GA 30013 $176,900
2017-03-16 Single Family Craftsman; Traditional 1437 Bourdon Bell Dr Conyers, GA 30013 $275,000 3,650 sq. ft. 21,344 sq. ft. $75
2017-03-16 Single Family Traditional 3435 Sandstone Trl Conyers, GA 30013 $176,900
2017-03-15 Single Family Ranch 3855 Maggie Dr Conyers, GA 30013 $45,000 1,056 sq. ft. 22,216 sq. ft. $43
2017-03-15 Single Family Ranch 2146 Kings Mountain Conyers, GA 30012 $129,000 1,808 sq. ft. 40,511 sq. ft. $71
2017-03-15 Single Family Traditional 3304 Flat Stone Conyers, GA 30094 $299,000 3,217 sq. ft. 26,136 sq. ft. $93
2017-03-15 Single Family Traditional 3211 Haleys Way Conyers, GA 30013 $245,000 1,973 sq. ft. 16,988 sq. ft. $124
2017-03-15 Single Family Ranch 3017 Hanover Ln Conyers, GA 30094 $272,900 2,211 sq. ft. $123
2017-03-15 Single Family Ranch 2406 Staffordshire Conyers, GA 30013 $278,500 3,007 sq. ft. $93
2017-03-15 Single Family Traditional 1910 Paces Landing Cir Conyers, GA 30012 $105,000 30,928 sq. ft.
2017-03-14 Single Family Traditional 2429 Hampshire Cv Conyers, GA 30013 $129,900 1,585 sq. ft. $82
2017-03-14 Single Family Ranch; Traditional 2314 Lochinver Ln Conyers, GA 30094 $289,900 2,516 sq. ft. 25,265 sq. ft. $115
2017-03-14 Single Family Traditional 2609 Sumpter Trl Conyers, GA 30012 $160,000 13,504 sq. ft.
2017-03-14 Single Family Ranch 2135 Surrey Trl Conyers, GA 30013 $124,000 25,700 sq. ft.
2017-03-13 Single Family Traditional 3101 Baywood Ct Conyers, GA 30013 $138,000 1,518 sq. ft. 16,117 sq. ft. $91
2017-03-13 Single Family Colonial 965 Sugar Creek Dr Conyers, GA 30094 $160,000 24,829 sq. ft.
2017-03-13 Single Family Traditional 1821 Lancaster Dr Conyers, GA 30013 $364,000 4,700 sq. ft. 35,284 sq. ft. $77
2017-03-13 Single Family Traditional 1721 Underwood Dr Conyers, GA 30013 $117,900 1,776 sq. ft. 9,583 sq. ft. $66
2017-03-13 Single Family Contemporary 4556 Wentworth Pl Conyers, GA 30094 $159,900 1,800 sq. ft. 9,583 sq. ft. $89
2017-03-13 Single Family Traditional 3599 High Ridge Dr Conyers, GA 30094 $125,000 1,314 sq. ft. 60,984 sq. ft. $95
2017-03-13 Single Family Traditional 1914 Kevin Dr Conyers, GA 30013 $203,500 2,427 sq. ft. 24,394 sq. ft. $84
2017-03-12 Single Family Traditional 2737 Potters Walk Conyers, GA 30012 $229,900 3,142 sq. ft. 15,246 sq. ft. $73
2017-03-11 Single Family Ranch 817 Sugar Creek Dr Conyers, GA 30094 $149,900 4,041 sq. ft. 20,473 sq. ft. $37
2017-03-10 Single Family Ranch 1629 Boxcar Pl Conyers, GA 30013 $126,500 1,500 sq. ft. 10,019 sq. ft. $84
2017-03-10 Single Family Traditional 2171 S River Rd Conyers, GA 30094 $220,000 2,456 sq. ft. 21,344 sq. ft. $90
2017-03-10 Single Family Traditional 1384 S Hicks Conyers, GA 30012 $99,900 15,246 sq. ft.
2017-03-10 Single Family Traditional 1301 Tyringham Ln Conyers, GA 30013 $214,000 2,745 sq. ft. $78
2017-03-10 Single Family Ranch 2107 Bishop Ct Conyers, GA 30013 $210,000 2,108 sq. ft. 10,019 sq. ft. $100
2017-03-10 Single Family Ranch; Traditional 3821 Eden Glen Dr Conyers, GA 30013 $88,400 1,971 sq. ft. 41,382 sq. ft. $45
2017-03-09 Single Family Ranch; Traditional 2206 Patriot Ct Conyers, GA 30094 $99,900 1,427 sq. ft. 16,988 sq. ft. $70
2017-03-09 Single Family A-Frame 1395 White Oak St Conyers, GA 30013 $155,000 1,956 sq. ft. 22,651 sq. ft. $79
2017-03-09 Single Family Ranch 1731 River St Conyers, GA 30012 $55,000 874 sq. ft. 14,810 sq. ft. $63
2017-03-09 Single Family Traditional 103 Ellis Dr Conyers, GA 30012 $103,900 1,562 sq. ft. 1,045 sq. ft. $67
2017-03-09 Single Family Craftsman; Traditional 2503 Ginger Leaf Dr Conyers, GA 30013 $248,390 2,775 sq. ft. $90
2017-03-09 Single Family Traditional 2420 Green Hollow Ct Conyers, GA 30012 $150,000
2017-03-08 Single Family Contemporary 1317 Gilford Pl Conyers, GA 30094 $225,000 2,795 sq. ft. 29,185 sq. ft. $80
2017-03-08 Single Family Traditional 1890 Westminister Way Conyers, GA 30012 $107,500 132 sq. ft. 20,909 sq. ft. $814
2017-03-08 Single Family Traditional 3001 Kathy Ln Conyers, GA 30012 $85,900 1,481 sq. ft. $58
2017-03-07 Single Family Colonial; Traditional 1051 Vineyard Dr Conyers, GA 30013 $250,000 2,462 sq. ft. 54,886 sq. ft. $102
2017-03-07 Single Family Colonial; Traditional 1765 Colonial South Dr Conyers, GA 30094 $199,900 2,457 sq. ft. 43,124 sq. ft. $81
2017-03-07 Single Family Traditional 4087 Clay Ct Conyers, GA 30013 $199,900
2017-03-07 Single Family Traditional 4074 Clay Ct Conyers, GA 30013 $175,900
2017-03-07 Single Family Traditional 4208 Dale Cv Conyers, GA 30013 $186,900
2017-03-07 Single Family Traditional 4071 Clay Ct Conyers, GA 30013 $172,900
2017-03-07 Single Family Traditional 4075 Clay Ct Conyers, GA 30013 $173,900
2017-03-07 Single Family Country/Rustic; Traditional 2959 Miller Bottom Rd Conyers, GA 30012 $700,000 5,903 sq. ft. 435,600 sq. ft. $119
2017-03-07 Single Family Traditional 2087 Surrey Trl Conyers, GA 30013 $135,000 3,056 sq. ft. 20,909 sq. ft. $44
2017-03-07 Single Family Other (See Remarks); Traditional 1081 Humphries Rd Conyers, GA 30012 $399,000 16,235 sq. ft. 116,741 sq. ft. $25
2017-03-07 Single Family Craftsman; Traditional 2514 Ginger Estates Dr Conyers, GA 30013 $287,800 1,700 sq. ft. $169
2017-03-07 Single Family Ranch 2767 Lake Capri Dr Conyers, GA 30012 $130,000 1,429 sq. ft. 25,265 sq. ft. $91
2017-03-06 Single Family Ranch 770 Bluebird Conyers, GA 30094 $92,000 1,361 sq. ft. 19,602 sq. ft. $68
2017-03-06 Single Family Ranch; Traditional 1331 Winesap Ct Conyers, GA 30013 $399,900 6,070 sq. ft. 40,075 sq. ft. $66
2017-03-06 Single Family Traditional 4082 Sweet Water Ct Conyers, GA 30094 $89,900 1,500 sq. ft. 13,068 sq. ft. $60
2017-03-06 Single Family Ranch 881 Doeskin Dr Conyers, GA 30012 $109,900 1,351 sq. ft. 13,068 sq. ft. $81
2017-03-06 Single Family Traditional 2740 Wellington Way Conyers, GA 30013 $335,000 5,346 sq. ft. 36,590 sq. ft. $63
2017-03-06 Single Family Traditional 1510 St George Pl Conyers, GA 30012 $174,900 3,651 sq. ft. 13,939 sq. ft. $48
2017-03-04 Single Family Traditional 1985 Wilson Conyers, GA 30012 $88,700 34,412 sq. ft.
2017-03-03 Single Family Traditional 1970 Windsor Creek Dr Conyers, GA 30094 $265,000
2017-03-03 Single Family Bungalow/Cottage; Traditional 1059 Green St Conyers, GA 30012 $108,900 1,363 sq. ft. 20,473 sq. ft. $80
2017-03-03 Single Family Traditional 2438 Planters Mill Way Conyers, GA 30012 $194,340 2,120 sq. ft. 7,841 sq. ft. $92
2017-03-03 Single Family Traditional 2413 Planters Mill Way Conyers, GA 30012 $236,490 2,313 sq. ft. 10,890 sq. ft. $102
2017-03-03 Single Family Colonial 411 Shadow Oak Dr Conyers, GA 30094 $178,800 2,158 sq. ft. 30,928 sq. ft. $83
2017-03-03 Single Family Traditional 1820 Thornhill Pass Conyers, GA 30013 $224,900 2,266 sq. ft. 20,865 sq. ft. $99
2017-03-03 Single Family Ranch 313 Honey Creek Rd Conyers, GA 30094 $99,950 1,816 sq. ft. 20,038 sq. ft. $55
2017-03-02 Single Family Mediterranean 2730 Fieldstone Dr Conyers, GA 30013 $215,900
2017-03-02 Single Family Craftsman; Traditional 2405 Ginger Tea Way Conyers, GA 30013 $299,390 3,582 sq. ft. 30,492 sq. ft. $84
2017-03-02 Single Family Craftsman; Traditional 2268 Ginger Lake Dr Conyers, GA 30013 $264,440 3,361 sq. ft. 13,068 sq. ft. $79
2017-03-02 Single Family Ranch 4730 Kensington Ct Conyers, GA 30094 $119,000 1,458 sq. ft. 12,197 sq. ft. $82
2017-03-02 Single Family Craftsman; Traditional 2507 Ginger Leaf Dr Conyers, GA 30013 $252,070 2,984 sq. ft. 9,583 sq. ft. $84
2017-03-02 Single Family Ranch 57 Roebuck Rd Conyers, GA 30012 $149,900 24,829 sq. ft.
2017-03-02 Single Family Ranch 2222 Jessowen Conyers, GA 30013 $179,900 2,103 sq. ft. 17,860 sq. ft. $86
2017-03-02 Single Family Traditional 2178 Chester Cir Conyers, GA 30013 $100,000 1,740 sq. ft. 17,424 sq. ft. $57
2017-03-01 Single Family Traditional 1412 Eastmont Conyers, GA 30012 $88,000 1,344 sq. ft. $65
2017-03-01 Single Family Ranch 3253 Salem Cove Trl Conyers, GA 30013 $129,900 1,476 sq. ft. 6,098 sq. ft. $88
2017-03-01 Single Family Ranch 4956 Lake Forest Dr Conyers, GA 30094 $124,900 1,653 sq. ft. 19,602 sq. ft. $76
2017-03-01 Single Family Colonial 3309 Coach House Ct Conyers, GA 30013 $185,000 2,432 sq. ft. 8,712 sq. ft. $76
2017-03-01 Single Family Ranch; Traditional 2793 Southpark Blvd Conyers, GA 30094 $199,900 1,829 sq. ft. 39,204 sq. ft. $109
2017-03-01 Single Family Bungalow/Cottage 1085 Main St Conyers, GA 30012 $175,000 2,370 sq. ft. 19,602 sq. ft. $74
2017-03-01 Single Family Ranch 115 Lanella Pkwy Conyers, GA 30013 $141,900
2017-03-01 Single Family Ranch 319 Cindy Dr Conyers, GA 30094 $125,000 1,401 sq. ft. $89
2017-03-01 Single Family Ranch; Traditional 1015 Eastview Rd Conyers, GA 30012 $99,900 1,107 sq. ft. 14,375 sq. ft. $90
2017-03-01 Single Family Bungalow/Cottage; Ranch 1032 North St Conyers, GA 30012 $79,000 1,648 sq. ft. 30,056 sq. ft. $48
2017-03-01 Single Family Craftsman 2405 Planters Mill Way Conyers, GA 30012 $280,040 3,151 sq. ft. 56,628 sq. ft. $89
2017-03-01 Single Family Ranch 1098 Mountain Vw Conyers, GA 30012 $29,900 1,320 sq. ft. 12,632 sq. ft. $23
2017-02-28 Single Family Ranch 2503 Chimney Ridge Dr Conyers, GA 30094 $225,000
2017-02-28 Single Family Craftsman 2604 Ginger Mist Way Conyers, GA 30013 $298,190 3,150 sq. ft. 56,628 sq. ft. $95
2017-02-28 Single Family Ranch 1549 Rena Ct Conyers, GA 30012 $40,000 1,189 sq. ft. 20,038 sq. ft. $34
2017-02-27 Single Family Craftsman; Traditional 1332 Wild Rose Dr Conyers, GA 30013 $260,795
2017-02-27 Single Family Craftsman; Traditional 1336 Wild Rose Dr Conyers, GA 30013 $276,520
2017-02-27 Single Family Ranch 3897 Hunters Chase Conyers, GA 30094 $149,900 2,653 sq. ft. 20,038 sq. ft. $56
2017-02-27 Single Family Ranch 2846 Club Forest Dr Conyers, GA 30013 $114,400 2,028 sq. ft. 20,038 sq. ft. $56
2017-02-27 Single Family Traditional 1709 Northolt Ct Conyers, GA 30013 $219,900 3,452 sq. ft. 16,553 sq. ft. $64
2017-02-27 Single Family Other (See Remarks); Ranch 1848 Brandy Woods Dr Conyers, GA 30013 $104,900 1,596 sq. ft. 27,878 sq. ft. $66
2017-02-27 Single Family Traditional 2422 Windridge Conyers, GA 30013 $134,900
2017-02-27 Single Family Ranch 701 Bluebird Dr Conyers, GA 30094 $89,500 1,560 sq. ft. 19,166 sq. ft. $57
2017-02-24 Single Family Cape Cod 3392 Hawthorne Ct Conyers, GA 30094 $139,900 2,465 sq. ft. 56,628 sq. ft. $57
2017-02-24 Single Family A-Frame 1665 Wesley Way Conyers, GA 30012 $69,900 1,297 sq. ft. 11,979 sq. ft. $54
2017-02-24 Single Family Traditional 5244 W Shore Dr Conyers, GA 30094 $349,900 4,778 sq. ft. 54,886 sq. ft. $73
2017-02-24 Single Family Traditional 2034 Appaloosa Way Conyers, GA 30012 $115,000
2017-02-24 Single Family Traditional 4891 Hull Rd Conyers, GA 30094 $102,000 1,770 sq. ft. 20,038 sq. ft. $58
2017-02-24 Single Family Ranch 1733 Richard Conyers, GA 30012 $60,000 39,640 sq. ft.
2017-02-23 Single Family Traditional 2274 Old Salem Rd Conyers, GA 30013 $469,900 4,753 sq. ft. 172,933 sq. ft. $99
2017-02-23 Single Family Contemporary 1373 Revel Cove Dr Conyers, GA 30094 $242,900 3,228 sq. ft. $75
2017-02-23 Single Family Craftsman; Traditional 3813 Rosebay Way Conyers, GA 30094 $293,415
2017-02-23 Single Family Craftsman; Traditional 3833 Rosebay Way Conyers, GA 30094 $296,530
2017-02-23 Single Family Craftsman; Traditional 3096 Rosebay Way Conyers, GA 30094 $295,321
2017-02-23 Single Family Ranch 2344 Pettit Dr Conyers, GA 30012 $139,900
2017-02-23 Single Family Traditional 864 Sweet Briar Ln Conyers, GA 30094 $172,000 2,388 sq. ft. 20,473 sq. ft. $72
2017-02-23 Single Family Traditional 3213 Haley Way Conyers, GA 30013 $250,000 16,117 sq. ft.
2017-02-22 Single Family Ranch 2044 Millstone Conyers, GA 30094 $301,900
2017-02-22 Single Family Traditional 715 Briarwood Rd Conyers, GA 30094 $115,000
2017-02-22 Single Family Ranch 2849 Happy Hollow Dr Conyers, GA 30094 $157,900 1,986 sq. ft. 110,207 sq. ft. $80
2017-02-21 Single Family Traditional 4080 Clay Ct Conyers, GA 30013 $175,900
2017-02-20 Single Family Traditional 199 Old Mill Trl Conyers, GA 30094 $74,600
2017-02-19 Single Family Traditional 2713 Cherry Blossom Conyers, GA 30013 $152,500 3,182 sq. ft. 18,731 sq. ft. $48
2017-02-18 Single Family Ranch 1672 Creekwood Dr Conyers, GA 30013 $108,000 1,374 sq. ft. 13,504 sq. ft. $79
2017-02-17 Single Family Other (See Remarks); Traditional 3008 Garland Way Conyers, GA 30094 $270,000 2,900 sq. ft. 128,502 sq. ft. $93
2017-02-16 Single Family Traditional 1010 Main St Conyers, GA 30012 $580,000 1,083 sq. ft. 6,534 sq. ft. $536
2017-02-16 Single Family Other (See Remarks); Traditional 1000 Main St Conyers, GA 30012 $580,000 2,230 sq. ft. 57,499 sq. ft. $260
2017-02-16 Single Family Traditional 997 Pine Log Rd Conyers, GA 30012 $580,000 1,200 sq. ft. 57,499 sq. ft. $483
2017-02-16 Single Family Traditional 1000 Pine Log Rd Conyers, GA 30012 $580,000 1,920 sq. ft. 57,499 sq. ft. $302
2017-02-16 Single Family Bungalow/Cottage; Traditional 994 Main St Conyers, GA 30012 $580,000 1,104 sq. ft. 13,199 sq. ft. $525
2017-02-16 Single Family Traditional 2915 Ash Grove Dr Conyers, GA 30094 $343,900 16,117 sq. ft.
2017-02-15 Single Family Traditional 3108 Brombley Dr Conyers, GA 30013 $279,900 3,388 sq. ft. 20,038 sq. ft. $83
2017-02-14 Single Family Traditional 1390 Fall River Dr Conyers, GA 30013 $205,500 3,077 sq. ft. 16,117 sq. ft. $67
2017-02-14 Single Family Contemporary 1000 Silver Summit Dr Conyers, GA 30094 $229,500 51,836 sq. ft.
2017-02-13 Single Family Cape Cod 3669 Sand Hill Dr Conyers, GA 30094 $193,000 20,909 sq. ft.
2017-02-13 Single Family Traditional 1720 Greystone Trce Conyers, GA 30013 $159,900 2,264 sq. ft. 16,161 sq. ft. $71
2017-02-12 Single Family Traditional 1475 St George Pl Conyers, GA 30012 $200,000 12,197 sq. ft.
2017-02-11 Single Family Ranch 2980 Creekview Ct Conyers, GA 30012 $114,900 1,640 sq. ft. 8,712 sq. ft. $70
2017-02-11 Single Family Traditional 1904 Buford Ct Conyers, GA 30094 $295,000 3,812 sq. ft. 17,424 sq. ft. $77
2017-02-10 Single Family Ranch 1427 Steam Engine Way Conyers, GA 30013 $110,000 2,157 sq. ft. 14,375 sq. ft. $51
2017-02-09 Single Family Traditional 2739 Pitlochry St Conyers, GA 30094 $339,999 4,806 sq. ft. 49,658 sq. ft. $71
2017-02-09 Single Family Traditional 2965 Lakeridge Dr Conyers, GA 30094 $100,000 1,908 sq. ft. $52
2017-02-09 Single Family Craftsman 2101 Grand Gleaton Pass Conyers, GA 30013 $219,000 2,933 sq. ft. 123,275 sq. ft. $75
2017-02-08 Single Family Traditional 2278 Exchange Pl Conyers, GA 30013 $180,000 3,142 sq. ft. 17,860 sq. ft. $57
2017-02-08 Single Family Craftsman; Traditional 4201 Yorke Ln Conyers, GA 30013 $365,000 3,619 sq. ft. 21,693 sq. ft. $101
2017-02-08 Single Family Traditional 1368 Travers Creek Trl Conyers, GA 30012 $159,000 3,347 sq. ft. 8,276 sq. ft. $48
2017-02-08 Single Family Traditional 1135 Stepping Stone Ln Conyers, GA 30012 $150,000 8,625 sq. ft.
2017-02-07 Single Family Traditional 1123 Oxford Dr Conyers, GA 30013 $345,000 5,504 sq. ft. 38,333 sq. ft. $63
2017-02-05 Single Family Ranch 3801 Zingara Conyers, GA 30012 $179,900 2,312 sq. ft. 141,570 sq. ft. $78
2017-02-04 Single Family Traditional 532 Trotters Ln Conyers, GA 30094 $209,900 2,547 sq. ft. 20,038 sq. ft. $82
2017-02-04 Single Family Ranch 2712 Westport Ln Conyers, GA 30094 $260,000 2,458 sq. ft. 30,928 sq. ft. $106
2017-02-03 Single Family Colonial 5122 Fawn Conyers, GA 30094 $285,000 3,642 sq. ft. 44,867 sq. ft. $78
2017-02-03 Single Family Ranch; Traditional 3010 Water Brook Dr Conyers, GA 30094 $164,900 2,535 sq. ft. 34,412 sq. ft. $65
2017-02-02 Single Family Traditional 1565 Bordeaux Ln Conyers, GA 30094 $439,000 3,696 sq. ft. 16,117 sq. ft. $119
2017-02-02 Single Family Traditional 1265 Mountain Dr Conyers, GA 30013 $108,500 1,898 sq. ft. $57
2017-02-02 Single Family Traditional 1500 Bordeaux Conyers, GA 30094 $409,000 3,696 sq. ft. 21,344 sq. ft. $111
2017-02-02 Single Family Ranch 1940 Farmer Conyers, GA 30012 $209,900 1,954 sq. ft. 814,572 sq. ft. $107
2017-02-02 Single Family Traditional 1307 River Club Dr Conyers, GA 30012 $179,900
2017-02-01 Single Family Traditional 1140 Old Covington Conyers, GA 30012 $155,900 1,940 sq. ft. 27,878 sq. ft. $80
2017-02-01 Single Family Ranch 2490 Nugget Dr Conyers, GA 30094 $75,900 1,277 sq. ft. 18,295 sq. ft. $59
2017-02-01 Single Family Traditional 3030 Zingara Rd Conyers, GA 30012 $814,000 3,370 sq. ft. 3,571,920 sq. ft. $242
2017-02-01 Single Family Traditional 1129 Carillon Dr Conyers, GA 30013 $310,645 3,550 sq. ft. 14,375 sq. ft. $88
2017-02-01 Single Family Traditional 1132 Carillon Dr Conyers, GA 30013 $275,615 3,000 sq. ft. 1,307 sq. ft. $92
2017-01-29 Single Family Traditional 4006 Brians Conyers, GA 30013 $219,499 18,295 sq. ft.
2017-01-27 Single Family Traditional 5175 Bailey Rd Conyers, GA 30094 $219,900 2,964 sq. ft. 218,671 sq. ft. $74
2017-01-27 Single Family Traditional 1476 Northside Dr Conyers, GA 30012 $308,500 3,471 sq. ft. $89
2017-01-27 Single Family Traditional 230 Thorn Berry Way Conyers, GA 30094 $249,900 4,242 sq. ft. 24,394 sq. ft. $59
2017-01-27 Single Family Craftsman 2214 Evening Mist Ln Conyers, GA 30012 $275,140 2,984 sq. ft. 9,583 sq. ft. $92
2017-01-27 Single Family Traditional 2409 Planters Mill Way Conyers, GA 30012 $254,490 2,831 sq. ft. 13,068 sq. ft. $90
2017-01-26 Single Family Traditional 4098 Sandstone Trl Conyers, GA 30013 $171,900
2017-01-26 Single Family Traditional 3646 Sandhill Dr Conyers, GA 30094 $135,000 22,216 sq. ft.
2017-01-26 Single Family Traditional 745 Smyrna Rd Conyers, GA 30094 $123,000 46,174 sq. ft.
2017-01-25 Single Family Ranch 1867 Mccollum Rd Conyers, GA 30094 $84,900 1,248 sq. ft. 21,780 sq. ft. $68
2017-01-25 Single Family Other (See Remarks); Ranch 800 Sweet Briar Trl Conyers, GA 30094 $164,900 2,076 sq. ft. 17,424 sq. ft. $79
2017-01-25 Single Family Traditional 3720 Windy Hill Dr Conyers, GA 30013 $137,500 1,900 sq. ft. 34,412 sq. ft. $72
2017-01-25 Single Family Ranch 1935 Flat Shoals Rd Conyers, GA 30013 $250,000
2017-01-25 Single Family Ranch 3718 Sandhill Dr Conyers, GA 30094 $160,000 1,800 sq. ft. 22,216 sq. ft. $89
2017-01-23 Single Family Traditional 2020 Jessica Way Conyers, GA 30012 $180,000
2017-01-23 Single Family Contemporary; Traditional 3230 Lucky Pl Conyers, GA 30013 $344,900 3,967 sq. ft. $87
2017-01-23 Single Family Ranch 684 Ralph Conyers, GA 30094 $109,000 1,250 sq. ft. 1,001,880 sq. ft. $87
2017-01-23 Single Family Ranch 801 Jefferson Dr Conyers, GA 30094 $98,000 21,344 sq. ft.
2017-01-20 Single Family Ranch 1724 Little Brook Dr Conyers, GA 30094 $129,900 1,972 sq. ft. 27,443 sq. ft. $66
2017-01-20 Single Family Ranch 448 Sweet Water Trl Conyers, GA 30094 $75,000 2,028 sq. ft. $37
2017-01-19 Single Family Traditional 1781 Riverchase Cir Conyers, GA 30013 $104,900
2017-01-19 Single Family Traditional 1524 Hi Roc Rd Conyers, GA 30012 $6,500,000 4,093 sq. ft. 11,489,386 sq. ft. $1,588
2017-01-19 Single Family Ranch 1575 Elm St Conyers, GA 30012 $139,000 15,246 sq. ft.
2017-01-19 Single Family Traditional 1654 Oak Forest Dr Conyers, GA 30013 $130,000 1,293 sq. ft. 9,148 sq. ft. $101
2017-01-19 Single Family Traditional 1733 Pacer Pl Conyers, GA 30012 $55,000 1,686 sq. ft. 24,306 sq. ft. $33
2017-01-19 Single Family Traditional 4311 Talley Tr Conyers, GA 30013 $260,000 2,356 sq. ft. 33,323 sq. ft. $110
2017-01-18 Single Family Ranch 5200 Wendwood Rd Conyers, GA 30094 $158,000 66,211 sq. ft.
2017-01-18 Single Family Traditional 2592 King Louis Rd Conyers, GA 30012 $140,000 1,880 sq. ft. 41,382 sq. ft. $74
2017-01-18 Single Family Traditional 1490 Patty Ct Conyers, GA 30013 $164,900 2,363 sq. ft. 23,522 sq. ft. $70
2017-01-18 Single Family Craftsman 2009 Harvest Mill Run Conyers, GA 30012 $247,490 2,984 sq. ft. 13,068 sq. ft. $83
2017-01-17 Single Family Traditional 2037 Reavis Bluff Conyers, GA 30012 $127,550
2017-01-17 Single Family Craftsman; Traditional 2442 Planters Mill Way Conyers, GA 30012 $256,640 3,374 sq. ft. 13,068 sq. ft. $76
2017-01-17 Single Family Craftsman 2127 Farmdale Ct Conyers, GA 30012 $265,640 2,775 sq. ft. $96
2017-01-16 Single Family Bungalow/Cottage; Ranch 1639 Oak St Conyers, GA 30012 $90,000 1,816 sq. ft. 18,731 sq. ft. $50
2017-01-16 Single Family Ranch 1632 Wesley Way Conyers, GA 30012 $74,900 1,040 sq. ft. 20,473 sq. ft. $72
2017-01-13 Single Family Ranch 1100 Taylor St Conyers, GA 30012 $114,900 1,112 sq. ft. 16,988 sq. ft. $103
2017-01-12 Single Family Traditional 2900 Lighthouse Way Conyers, GA 30013 $172,500
2017-01-12 Single Family Ranch 255 Mountain Trace Conyers, GA 30013 $329,900 4,288 sq. ft. 125,888 sq. ft. $77
2017-01-12 Single Family Ranch 3770 Dial Mill Rd Conyers, GA 30013 $124,900 2,117 sq. ft. 81,022 sq. ft. $59
2017-01-12 Single Family Traditional 2545 King George Ct Conyers, GA 30012 $79,900 1,304 sq. ft. 44,431 sq. ft. $61
2017-01-11 Single Family Ranch 2792 Biscayne Dr Conyers, GA 30012 $130,000 2,174 sq. ft. 28,314 sq. ft. $60
2017-01-11 Single Family Traditional 3152 Claridge Dr Conyers, GA 30094 $219,900 2,998 sq. ft. 31,799 sq. ft. $73
2017-01-10 Single Family Traditional 1011 Corley Conyers, GA 30012 $465,000 4,067 sq. ft. 592,852 sq. ft. $114
2017-01-09 Single Family Traditional 1508 Shoal Creek Dr Conyers, GA 30094 $179,900 2,499 sq. ft. 23,087 sq. ft. $72
2017-01-06 Single Family Traditional 2795 Rockbridge Rd Conyers, GA 30012 $129,900 1,570 sq. ft. 30,056 sq. ft. $83
2017-01-06 Single Family Craftsman; Traditional 2111 Ginger Estates Dr Conyers, GA 30013 $267,620 3,150 sq. ft. $85
2017-01-05 Single Family Traditional 1711 Windsong Dr Conyers, GA 30094 $259,900 3,231 sq. ft. 38,768 sq. ft. $80
2017-01-04 Single Family Traditional 2323 Danielle Blvd Conyers, GA 30012 $285,000 29,795 sq. ft.
2017-01-04 Single Family Ranch 2323 Amberbrook Conyers, GA 30094 $95,000 1,766 sq. ft. 23,522 sq. ft. $54
2017-01-03 Single Family Ranch 611 Upland Ridge Conyers, GA 30012 $99,900 1,679 sq. ft. 18,295 sq. ft. $60
2017-01-03 Single Family Cape Cod 1400 Mcwilliams Rd Conyers, GA 30094 $310,000 4,660 sq. ft. 108,464 sq. ft. $67
2017-01-03 Single Family Ranch 3895 Partridge Pl Conyers, GA 30094 $132,900 1,817 sq. ft. 22,651 sq. ft. $73
2017-01-02 Single Family Ranch 1945 Leigh Dr Conyers, GA 30094 $99,900 1,200 sq. ft. 24,829 sq. ft. $83
2017-01-02 Single Family Traditional 2985 Stonecrest Pt Conyers, GA 30094 $230,000 2,292 sq. ft. 23,958 sq. ft. $100
2016-12-30 Single Family Craftsman; Traditional 1512 Kathryns Glen Dr Conyers, GA 30013 $249,465
2016-12-30 Single Family Traditional 4094 Clay Ct Conyers, GA 30013 $179,900
2016-12-30 Single Family Traditional 4093 Clay Ct Conyers, GA 30013 $181,900
2016-12-30 Single Family Traditional 4205 Dale Cv Conyers, GA 30013 $184,900
2016-12-30 Single Family Traditional 4096 Clay Ct Conyers, GA 30013 $187,900
2016-12-30 Single Family Traditional 4095 Clay Ct Conyers, GA 30013 $178,900
2016-12-30 Single Family Traditional 4104 Dale Dr Conyers, GA 30013 $172,900
2016-12-29 Single Family Traditional 3266 Old Salem Rd Conyers, GA 30013 $155,000 20,038 sq. ft.
2016-12-28 Single Family Traditional 412 Honey Creek Ct Conyers, GA 30094 $149,900 1,914 sq. ft. 17,424 sq. ft. $78
2016-12-27 Single Family Ranch 787 Ralph Rd Conyers, GA 30094 $90,000 1,668 sq. ft. 69,696 sq. ft. $54
2016-12-27 Single Family Traditional 2326 Fountain Head Cir Conyers, GA 30013 $169,900 2,125 sq. ft. $80
2016-12-26 Single Family Ranch 4632 Woodlake Conyers, GA 30013 $105,000 1,992 sq. ft. 95,396 sq. ft. $53
2016-12-23 Single Family Ranch; Traditional 118 Woodward Conyers, GA 30094 $253,900 377,230 sq. ft.
2016-12-22 Single Family Contemporary 1131 Ardeena Way Conyers, GA 30013 $405,000 4,122 sq. ft. $98
2016-12-22 Single Family Traditional 3388 Branch Valley Trl Conyers, GA 30094 $389,900 70,567 sq. ft.
2016-12-20 Single Family Contemporary 362 Golfcrest Dr Conyers, GA 30013 $184,900
2016-12-19 Single Family Country/Rustic; Ranch; Traditional 3235 Ebenezer Conyers, GA 30094 $350,000 4,663 sq. ft. 92,347 sq. ft. $75
2016-12-19 Single Family Traditional 2653 Laurel Woods Ln Conyers, GA 30094 $91,025 2,349 sq. ft. 49,658 sq. ft. $39
2016-12-19 Single Family Traditional 2602 Hill Cir Conyers, GA 30012 $134,900 1,452 sq. ft. $93
2016-12-19 Single Family Ranch 621 Honey Crk Conyers, GA 30094 $119,900 21,780 sq. ft.
2016-12-16 Single Family Traditional 1749 Brandywoods Trl Conyers, GA 30013 $99,900 20,038 sq. ft.
2016-12-16 Single Family 3330 Rowan Rd Conyers, GA 30094 $389,000 486,130 sq. ft.
2016-12-16 Single Family Ranch 1596 Broad St Conyers, GA 30012 $89,900 9,583 sq. ft.
2016-12-15 Single Family Traditional 4209 Dale Cv Conyers, GA 30013 $181,900
2016-12-15 Single Family Traditional 3443 Sandstone Trl Conyers, GA 30013 $169,900
2016-12-15 Single Family Traditional 3441 Sandstone Trl Conyers, GA 30013 $169,900
2016-12-15 Single Family Traditional 854 Treeline Dr Conyers, GA 30094 $311,900 3,414 sq. ft. $91
2016-12-14 Single Family Ranch 2347 Shadowood Dr Conyers, GA 30094 $135,000 2,703 sq. ft. 28,750 sq. ft. $50
2016-12-13 Single Family Cape Cod 830 Sugar Creek Dr Conyers, GA 30094 $139,000 2,331 sq. ft. 26,136 sq. ft. $60
2016-12-13 Single Family Contemporary; European 2445 Highway 138 Conyers, GA 30094 $729,000 217,800 sq. ft.
2016-12-13 Single Family Ranch; Traditional 1932 Kevin Dr Conyers, GA 30013 $168,900 1,974 sq. ft. 18,295 sq. ft. $86
2016-12-12 Single Family Traditional 2107 Amherst Trl Conyers, GA 30094 $160,000 29,621 sq. ft.
2016-12-12 Single Family Contemporary 4005 Clay Ct Conyers, GA 30013 $142,000
2016-12-12 Single Family Traditional 3843 Cameron Trl Conyers, GA 30013 $163,900
2016-12-12 Single Family Bungalow/Cottage 2052 Hi Roc Cir Conyers, GA 30012 $22,000 1,282 sq. ft. 7,405 sq. ft. $17
2016-12-11 Single Family Ranch 1057 Plantation Way Conyers, GA 30094 $145,000 1,432 sq. ft. $101
2016-12-09 Single Family Ranch 3999 Sugar Valley Ct Conyers, GA 30094 $99,990 33,541 sq. ft.
2016-12-08 Single Family Ranch 2321 Rock Mill Ln Conyers, GA 30012 $80,000 26,136 sq. ft.
2016-12-08 Single Family Ranch 2450 Irwin Bridge Rd Conyers, GA 30012 $220,000 2,657 sq. ft. 162,479 sq. ft. $83
2016-12-07 Single Family Country/Rustic; Traditional 3775 Underwood Rd Conyers, GA 30013 $589,500 4,650 sq. ft. 356,756 sq. ft. $127
2016-12-07 Single Family Ranch 3024 Granite Dr Conyers, GA 30012 $72,000 1,188 sq. ft. 70,567 sq. ft. $61
2016-12-06 Single Family Traditional 961 Jimson Dr Conyers, GA 30013 $299,900 3,930 sq. ft. 48,787 sq. ft. $76
2016-12-01 Single Family European; Ranch 3009 Heights Ave Conyers, GA 30094 $569,900
2016-12-01 Single Family European; Traditional 3008 Heights Ave Conyers, GA 30094 $679,900
2016-12-01 Single Family European; Ranch 3007 Heights Ave Conyers, GA 30094 $589,900 21,780 sq. ft.
2016-12-01 Single Family Contemporary; Traditional 1666 Smyrna Rd Conyers, GA 30094 $274,900 3,848 sq. ft. $71
2016-12-01 Single Family Ranch 1955 Flat Shoals Rd Conyers, GA 30013 $500,000 182,952 sq. ft.
2016-12-01 Single Family Traditional 2784 Southpark Conyers, GA 30094 $194,900 3,351 sq. ft. 20,909 sq. ft. $58
2016-11-30 Single Family Traditional 6012 Vicksburg Ct Conyers, GA 30094 $284,999 2,698 sq. ft. $106
2016-11-30 Single Family Traditional 2035 Jessica Way Conyers, GA 30012 $230,000 2,564 sq. ft. 19,689 sq. ft. $90
2016-11-30 Single Family Traditional 3451 Sandstone Trl Conyers, GA 30013 $170,900
2016-11-28 Single Family Traditional 3084 Horseshoe Springs Dr Conyers, GA 30013 $345,000 4,273 sq. ft. 148,975 sq. ft. $81
2016-11-27 Single Family European; French Provincial 2321 Gleneagle Trce Conyers, GA 30012 $549,000 5,748 sq. ft. 168,577 sq. ft. $96
2016-11-26 Single Family Traditional 167 Bridgewood Dr Conyers, GA 30094 $104,900 21,780 sq. ft.
2016-11-23 Single Family Bungalow/Cottage 2459 Lakeshore Dr Conyers, GA 30012 $127,000 1,768 sq. ft. 23,522 sq. ft. $72
2016-11-23 Single Family High Rise 2135 Hickory Conyers, GA 30013 $87,500 16,988 sq. ft.
2016-11-23 Single Family Traditional 2306 Country Club Dr Conyers, GA 30013 $174,900 2,233 sq. ft. 33,541 sq. ft. $78
2016-11-23 Single Family Traditional 1361 Travers Creek Trl Conyers, GA 30012 $162,750 3,352 sq. ft. 10,454 sq. ft. $49
2016-11-22 Single Family Craftsman; Ranch; Traditional 1586 Renaissance Conyers, GA 30012 $299,000 8,712 sq. ft.
2016-11-22 Single Family Craftsman; Ranch; Traditional 1602 Renaissance Conyers, GA 30012 $239,000 9,583 sq. ft.
2016-11-22 Single Family Ranch 2187 Hampton Trl Conyers, GA 30013 $206,000
2016-11-22 Single Family Traditional 1447 Gardner Rd Conyers, GA 30012 $144,000 2,116 sq. ft. 22,651 sq. ft. $68
2016-11-22 Single Family Ranch 1387 Peggy Ln Conyers, GA 30012 $86,900 1,352 sq. ft. 15,246 sq. ft. $64
2016-11-15 Single Family Traditional 2400 Amberbrook Dr Conyers, GA 30094 $124,900 1,979 sq. ft. 20,038 sq. ft. $63
2016-11-14 Single Family Traditional 1828 Christopher Dr Conyers, GA 30094 $450,000
2016-11-14 Single Family Traditional 3113 Brians Creek Dr Conyers, GA 30013 $250,000 2,980 sq. ft. 17,424 sq. ft. $84
2016-11-14 Single Family Traditional 639 Lakeridge Cir Conyers, GA 30094 $85,000 1,512 sq. ft. 10,019 sq. ft. $56
2016-11-11 Single Family Ranch 856 Virginia Ct Conyers, GA 30094 $120,000 40,075 sq. ft.
2016-11-11 Single Family Traditional 1809 Christopher Dr Conyers, GA 30094 $425,000
2016-11-10 Single Family Ranch 2468 Lakeshore Dr Conyers, GA 30012 $120,000 2,094 sq. ft. 22,216 sq. ft. $57
2016-11-08 Single Family Craftsman; Ranch 1309 Lakewood Dr Conyers, GA 30013 $99,000 2,760 sq. ft. 19,602 sq. ft. $36
2016-11-08 Single Family Cape Cod; Traditional 1114 Wallington Ct Conyers, GA 30012 $395,000 5,192 sq. ft. 261,360 sq. ft. $76
2016-11-06 Single Family Traditional 2911 Sutton Pl Conyers, GA 30013 $320,000 3,802 sq. ft. 23,958 sq. ft. $84
2016-11-06 Single Family Ranch 2125 Smyrna Rd Conyers, GA 30094 $192,400 3,000 sq. ft. 81,022 sq. ft. $64
2016-11-05 Single Family Traditional 2400 Aveberry Ct Conyers, GA 30013 $247,500 2,549 sq. ft. 22,216 sq. ft. $97
2016-11-04 Single Family Country/Rustic; European 2564 Tucker Mill Rd Conyers, GA 30094 $848,500 5,586 sq. ft. 1,306,800 sq. ft. $152
2016-11-02 Single Family Traditional 3377 Concord Corners Conyers, GA 30013 $139,900 20,473 sq. ft.
2016-11-01 Single Family Traditional 1242 Branlee Dr Conyers, GA 30013 $290,065 3,000 sq. ft. 1,307 sq. ft. $97
2016-11-01 Single Family Traditional 2960 David Ln Conyers, GA 30012 $119,900 1,483 sq. ft. 19,602 sq. ft. $81
2016-11-01 Single Family Ranch 1033 Lyndhurst Conyers, GA 30013 $374,900 2,947 sq. ft. $127
2016-10-29 Single Family Traditional 684 Lakeridge Dr Conyers, GA 30094 $109,900 2,074 sq. ft. 9,583 sq. ft. $53
2016-10-28 Single Family Ranch 1535 Flat Shoals Rd Conyers, GA 30094 $82,500 1,600 sq. ft. 53,143 sq. ft. $52
2016-10-28 Single Family Traditional 2020 Briar Creek Ct Conyers, GA 30012 $102,425 1,941 sq. ft. 8,712 sq. ft. $53
2016-10-28 Single Family Contemporary 2935 Bonds Lake Rd Conyers, GA 30012 $675,000 7,579 sq. ft. 47,916 sq. ft. $89
2016-10-26 Single Family Traditional 1865 Windsor Creek Dr Conyers, GA 30094 $224,900 3,710 sq. ft. 130,680 sq. ft. $61
2016-10-26 Single Family Ranch; Traditional 3488 Richmond Dr Conyers, GA 30094 $90,000 1,554 sq. ft. 23,087 sq. ft. $58
2016-10-26 Single Family Traditional 1209 Dressage Ridge Conyers, GA 30013 $108,000 1,432 sq. ft. 14,375 sq. ft. $75
2016-10-26 Single Family Ranch 2106 Pleasant View Ct Conyers, GA 30094 $139,900 1,858 sq. ft. $75
2016-10-25 Single Family Ranch 1309 Saxony Dr Conyers, GA 30013 $168,000 17,424 sq. ft.